createdAt,value
2022-09-06T00:00:01.638Z,24.87
2022-09-06T00:01:14.864Z,24.83
2022-09-06T00:02:16.506Z,24.82
2022-09-06T00:03:18.596Z,24.80
2022-09-06T00:04:20.129Z,24.80
2022-09-06T00:05:21.769Z,24.79
2022-09-06T00:06:23.302Z,24.78
2022-09-06T00:07:24.979Z,24.76
2022-09-06T00:08:26.680Z,24.74
2022-09-06T00:09:28.241Z,24.73
2022-09-06T00:10:30.195Z,24.71
2022-09-06T00:11:31.709Z,24.70
2022-09-06T00:12:33.313Z,24.71
2022-09-06T00:13:35.112Z,24.70
2022-09-06T00:14:36.611Z,24.69
2022-09-06T00:15:38.170Z,24.70
2022-09-06T00:16:40.683Z,24.67
2022-09-06T00:17:44.639Z,24.69
2022-09-06T00:18:46.261Z,24.68
2022-09-06T00:19:47.818Z,24.67
2022-09-06T00:20:49.347Z,24.67
2022-09-06T00:21:50.867Z,24.68
2022-09-06T00:22:52.378Z,24.68
2022-09-06T00:23:53.975Z,24.66
2022-09-06T00:24:55.463Z,24.64
2022-09-06T00:26:03.875Z,24.60
2022-09-06T00:27:05.786Z,24.58
2022-09-06T00:28:07.503Z,24.57
2022-09-06T00:29:08.998Z,24.57
2022-09-06T00:30:10.919Z,24.57
2022-09-06T00:31:13.539Z,24.55
2022-09-06T00:32:15.110Z,24.54
2022-09-06T00:33:16.634Z,24.54
2022-09-06T00:34:18.120Z,24.55
2022-09-06T00:35:19.750Z,24.54
2022-09-06T00:36:21.400Z,24.53
2022-09-06T00:37:22.895Z,24.52
2022-09-06T00:38:24.434Z,24.53
2022-09-06T00:39:25.965Z,24.53
2022-09-06T00:40:29.434Z,24.54
2022-09-06T00:41:31.047Z,24.56
2022-09-06T00:42:32.527Z,24.55
2022-09-06T00:43:34.075Z,24.55
2022-09-06T00:44:35.566Z,24.56
2022-09-06T00:45:37.046Z,24.56
2022-09-06T00:46:39.149Z,24.56
2022-09-06T00:47:41.572Z,24.56
2022-09-06T00:48:43.099Z,24.56
2022-09-06T00:49:45.440Z,24.57
2022-09-06T00:50:47.001Z,24.57
2022-09-06T00:51:48.555Z,24.57
2022-09-06T00:52:50.199Z,24.57
2022-09-06T00:53:51.745Z,24.57
2022-09-06T00:54:53.251Z,24.57
2022-09-06T00:55:54.730Z,24.57
2022-09-06T00:56:56.311Z,24.56
2022-09-06T00:57:57.834Z,24.56
2022-09-06T00:59:00.259Z,24.56
2022-09-06T01:00:02.229Z,24.56
2022-09-06T01:01:03.870Z,24.46
2022-09-06T01:02:05.621Z,24.56
2022-09-06T01:03:07.307Z,24.56
2022-09-06T01:04:08.884Z,24.55
2022-09-06T01:05:10.693Z,24.56
2022-09-06T01:06:12.185Z,24.55
2022-09-06T01:07:13.758Z,24.56
2022-09-06T01:08:16.879Z,24.56
2022-09-06T01:09:21.390Z,24.53
2022-09-06T01:10:22.855Z,24.54
2022-09-06T01:11:28.936Z,24.53
2022-09-06T01:12:34.269Z,24.53
2022-09-06T01:13:44.654Z,24.53
2022-09-06T01:14:56.791Z,24.48
2022-09-06T01:16:08.800Z,24.42
2022-09-06T01:17:16.934Z,24.32
2022-09-06T01:18:27.546Z,24.28
2022-09-06T01:19:47.523Z,24.26
2022-09-06T01:20:58.227Z,24.24
2022-09-06T01:22:08.003Z,24.22
2022-09-06T01:23:24.736Z,24.23
2022-09-06T01:24:26.220Z,24.23
2022-09-06T01:25:36.917Z,24.23
2022-09-06T01:26:48.362Z,24.24
2022-09-06T01:28:25.072Z,24.22
2022-09-06T01:29:28.401Z,24.22
2022-09-06T01:30:29.929Z,24.21
2022-09-06T01:31:33.185Z,24.23
2022-09-06T01:32:36.931Z,24.25
2022-09-06T01:33:41.241Z,24.25
2022-09-06T01:34:44.312Z,24.25
2022-09-06T01:35:58.601Z,24.29
2022-09-06T01:37:10.586Z,24.29
2022-09-06T01:38:12.558Z,24.32
2022-09-06T01:39:29.965Z,24.35
2022-09-06T01:40:35.635Z,24.41
2022-09-06T01:41:37.182Z,24.44
2022-09-06T01:42:38.800Z,24.50
2022-09-06T01:43:41.018Z,24.53
2022-09-06T01:44:46.147Z,24.58
2022-09-06T01:45:56.633Z,24.60
2022-09-06T01:47:05.880Z,24.65
2022-09-06T01:48:10.087Z,24.66
2022-09-06T01:49:20.555Z,24.67
2022-09-06T01:50:42.342Z,24.68
2022-09-06T01:51:46.923Z,24.71
2022-09-06T01:52:57.637Z,24.72
2022-09-06T01:53:59.183Z,24.73
2022-09-06T01:55:07.156Z,24.74
2022-09-06T01:56:08.738Z,24.75
2022-09-06T01:57:13.058Z,24.76
2022-09-06T01:58:14.524Z,24.78
2022-09-06T01:59:25.115Z,24.79
2022-09-06T02:00:29.467Z,24.77
2022-09-06T02:01:52.205Z,24.78
2022-09-06T02:03:00.032Z,24.75
2022-09-06T02:04:21.318Z,24.76
2022-09-06T02:05:25.206Z,24.75
2022-09-06T02:06:27.913Z,24.76
2022-09-06T02:07:29.629Z,24.76
2022-09-06T02:08:32.260Z,24.76
2022-09-06T02:09:35.657Z,24.76
2022-09-06T02:10:41.458Z,24.76
2022-09-06T02:11:53.885Z,24.75
2022-09-06T02:12:55.982Z,24.76
2022-09-06T02:13:58.731Z,24.75
2022-09-06T02:15:01.709Z,24.76
2022-09-06T02:16:04.558Z,24.75
2022-09-06T02:17:06.858Z,24.75
2022-09-06T02:18:16.451Z,24.75
2022-09-06T02:19:19.613Z,24.74
2022-09-06T02:20:22.776Z,24.74
2022-09-06T02:21:26.203Z,24.75
2022-09-06T02:22:28.321Z,24.74
2022-09-06T02:23:31.299Z,24.73
2022-09-06T02:24:33.136Z,24.73
2022-09-06T02:25:38.641Z,24.70
2022-09-06T02:26:40.734Z,24.70
2022-09-06T02:27:42.298Z,24.69
2022-09-06T02:28:43.788Z,24.69
2022-09-06T02:29:45.305Z,24.60
2022-09-06T02:30:49.137Z,24.67
2022-09-06T02:31:51.253Z,24.66
2022-09-06T02:32:57.688Z,24.65
2022-09-06T02:33:59.175Z,24.62
2022-09-06T02:35:02.408Z,24.60
2022-09-06T02:36:05.740Z,24.61
2022-09-06T02:37:07.404Z,24.59
2022-09-06T02:38:08.925Z,24.59
2022-09-06T02:39:10.653Z,24.58
2022-09-06T02:40:12.375Z,24.59
2022-09-06T02:41:28.979Z,24.59
2022-09-06T02:42:30.491Z,24.60
2022-09-06T02:43:32.163Z,24.61
2022-09-06T02:44:33.699Z,24.60
2022-09-06T02:45:35.402Z,24.61
2022-09-06T02:46:36.963Z,24.60
2022-09-06T02:47:38.528Z,24.61
2022-09-06T02:48:40.078Z,24.62
2022-09-06T02:49:41.569Z,24.60
2022-09-06T02:50:43.089Z,24.60
2022-09-06T02:51:44.679Z,24.60
2022-09-06T02:52:46.554Z,24.60
2022-09-06T02:53:48.071Z,24.60
2022-09-06T02:54:49.579Z,24.58
2022-09-06T02:55:51.131Z,24.55
2022-09-06T02:56:52.767Z,24.52
2022-09-06T02:57:54.271Z,24.52
2022-09-06T02:58:55.790Z,24.51
2022-09-06T02:59:57.578Z,24.52
2022-09-06T03:00:59.192Z,24.52
2022-09-06T03:02:00.840Z,24.50
2022-09-06T03:03:03.299Z,24.51
2022-09-06T03:04:04.795Z,24.52
2022-09-06T03:05:06.515Z,24.51
2022-09-06T03:06:08.035Z,24.48
2022-09-06T03:07:09.559Z,24.46
2022-09-06T03:08:11.111Z,24.44
2022-09-06T03:09:12.594Z,24.43
2022-09-06T03:10:14.163Z,24.44
2022-09-06T03:11:15.759Z,24.45
2022-09-06T03:12:17.280Z,24.47
2022-09-06T03:13:18.959Z,24.47
2022-09-06T03:14:20.484Z,24.49
2022-09-06T03:15:22.009Z,24.50
2022-09-06T03:16:23.622Z,24.49
2022-09-06T03:17:25.164Z,24.50
2022-09-06T03:18:27.258Z,24.50
2022-09-06T03:19:28.903Z,24.48
2022-09-06T03:20:35.042Z,24.48
2022-09-06T03:21:38.418Z,24.44
2022-09-06T03:22:39.943Z,24.42
2022-09-06T03:23:41.442Z,24.40
2022-09-06T03:24:42.999Z,24.39
2022-09-06T03:25:44.667Z,24.41
2022-09-06T03:26:46.207Z,24.40
2022-09-06T03:27:47.947Z,24.39
2022-09-06T03:28:50.393Z,24.40
2022-09-06T03:29:51.921Z,24.39
2022-09-06T03:30:53.535Z,24.38
2022-09-06T03:31:55.068Z,24.38
2022-09-06T03:32:58.909Z,24.35
2022-09-06T03:34:02.298Z,24.35
2022-09-06T03:35:03.881Z,24.34
2022-09-06T03:36:05.462Z,24.30
2022-09-06T03:37:07.082Z,24.31
2022-09-06T03:38:08.659Z,24.30
2022-09-06T03:39:10.175Z,24.24
2022-09-06T03:40:11.730Z,24.20
2022-09-06T03:41:13.392Z,24.06
2022-09-06T03:42:14.886Z,23.95
2022-09-06T03:43:17.166Z,23.91
2022-09-06T03:44:18.692Z,23.90
2022-09-06T03:45:20.191Z,23.88
2022-09-06T03:46:21.737Z,23.87
2022-09-06T03:47:23.334Z,23.86
2022-09-06T03:48:25.108Z,23.83
2022-09-06T03:49:26.636Z,23.83
2022-09-06T03:50:28.117Z,23.81
2022-09-06T03:51:29.607Z,23.81
2022-09-06T03:52:31.237Z,23.77
2022-09-06T03:53:32.767Z,23.76
2022-09-06T03:54:34.420Z,23.71
2022-09-06T03:55:35.903Z,23.71
2022-09-06T03:56:37.387Z,23.69
2022-09-06T03:57:39.019Z,23.70
2022-09-06T03:58:40.548Z,23.71
2022-09-06T03:59:42.043Z,23.73
2022-09-06T04:00:43.740Z,23.73
2022-09-06T04:01:45.370Z,23.75
2022-09-06T04:02:47.030Z,23.76
2022-09-06T04:03:48.565Z,23.76
2022-09-06T04:04:50.095Z,23.76
2022-09-06T04:05:51.863Z,23.77
2022-09-06T04:06:53.351Z,23.77
2022-09-06T04:07:54.907Z,23.78
2022-09-06T04:08:56.386Z,23.77
2022-09-06T04:09:57.923Z,23.77
2022-09-06T04:10:59.546Z,23.77
2022-09-06T04:12:01.022Z,23.77
2022-09-06T04:13:02.563Z,23.78
2022-09-06T04:14:04.146Z,23.76
2022-09-06T04:15:06.198Z,23.73
2022-09-06T04:16:07.827Z,23.72
2022-09-06T04:17:09.447Z,23.71
2022-09-06T04:18:11.209Z,23.70
2022-09-06T04:19:12.699Z,23.71
2022-09-06T04:20:14.657Z,23.69
2022-09-06T04:21:16.162Z,23.68
2022-09-06T04:22:17.647Z,23.69
2022-09-06T04:23:19.457Z,23.68
2022-09-06T04:24:20.956Z,23.68
2022-09-06T04:25:22.438Z,23.67
2022-09-06T04:26:23.949Z,23.67
2022-09-06T04:27:25.476Z,23.65
2022-09-06T04:28:27.306Z,23.66
2022-09-06T04:29:28.885Z,23.65
2022-09-06T04:30:30.425Z,23.65
2022-09-06T04:31:31.983Z,23.65
2022-09-06T04:32:33.524Z,23.62
2022-09-06T04:33:35.520Z,23.62
2022-09-06T04:34:37.004Z,23.59
2022-09-06T04:35:38.491Z,23.57
2022-09-06T04:36:40.055Z,23.54
2022-09-06T04:37:41.605Z,23.47
2022-09-06T04:38:43.578Z,23.40
2022-09-06T04:39:45.139Z,23.32
2022-09-06T04:40:46.668Z,23.28
2022-09-06T04:41:48.415Z,23.25
2022-09-06T04:42:49.895Z,23.25
2022-09-06T04:43:51.431Z,23.26
2022-09-06T04:44:52.959Z,23.27
2022-09-06T04:45:54.538Z,23.28
2022-09-06T04:47:07.430Z,23.28
2022-09-06T04:48:10.964Z,23.30
2022-09-06T04:49:12.505Z,23.30
2022-09-06T04:50:14.059Z,23.29
2022-09-06T04:51:15.542Z,23.31
2022-09-06T04:52:17.139Z,23.30
2022-09-06T04:53:18.811Z,23.30
2022-09-06T04:54:20.299Z,23.31
2022-09-06T04:55:21.818Z,23.30
2022-09-06T04:56:23.799Z,23.30
2022-09-06T04:57:25.274Z,23.30
2022-09-06T04:58:26.894Z,23.28
2022-09-06T04:59:28.411Z,23.27
2022-09-06T05:00:30.487Z,23.27
2022-09-06T05:01:32.051Z,23.26
2022-09-06T05:02:33.715Z,23.26
2022-09-06T05:03:35.360Z,23.25
2022-09-06T05:04:36.875Z,23.23
2022-09-06T05:05:38.355Z,23.21
2022-09-06T05:06:41.627Z,23.22
2022-09-06T05:07:43.117Z,23.19
2022-09-06T05:08:44.616Z,23.17
2022-09-06T05:09:46.157Z,23.16
2022-09-06T05:10:50.877Z,23.15
2022-09-06T05:11:52.353Z,23.16
2022-09-06T05:12:54.131Z,23.17
2022-09-06T05:13:55.656Z,23.16
2022-09-06T05:14:57.190Z,23.17
2022-09-06T05:16:02.164Z,23.18
2022-09-06T05:17:03.758Z,23.18
2022-09-06T05:18:06.627Z,23.18
2022-09-06T05:19:08.132Z,23.18
2022-09-06T05:20:10.531Z,23.18
2022-09-06T05:21:12.056Z,23.17
2022-09-06T05:22:13.554Z,23.18
2022-09-06T05:23:15.031Z,23.17
2022-09-06T05:24:16.546Z,23.18
2022-09-06T05:25:18.050Z,23.18
2022-09-06T05:26:19.614Z,23.17
2022-09-06T05:27:21.123Z,23.19
2022-09-06T05:28:23.197Z,23.19
2022-09-06T05:29:28.735Z,23.19
2022-09-06T05:30:31.968Z,23.19
2022-09-06T05:31:33.853Z,23.20
2022-09-06T05:32:35.468Z,23.20
2022-09-06T05:33:37.092Z,23.20
2022-09-06T05:34:38.625Z,23.23
2022-09-06T05:35:40.192Z,23.23
2022-09-06T05:36:42.063Z,23.24
2022-09-06T05:37:43.619Z,23.24
2022-09-06T05:38:45.135Z,23.26
2022-09-06T05:39:46.832Z,23.26
2022-09-06T05:40:48.359Z,23.29
2022-09-06T05:41:49.867Z,23.29
2022-09-06T05:42:51.439Z,23.30
2022-09-06T05:43:53.012Z,23.33
2022-09-06T05:44:54.493Z,23.32
2022-09-06T05:45:56.100Z,23.33
2022-09-06T05:46:57.635Z,23.35
2022-09-06T05:47:59.138Z,23.37
2022-09-06T05:49:04.744Z,23.38
2022-09-06T05:50:07.032Z,23.40
2022-09-06T05:51:09.518Z,23.42
2022-09-06T05:52:11.027Z,23.43
2022-09-06T05:53:13.094Z,23.44
2022-09-06T05:54:14.609Z,23.46
2022-09-06T05:55:16.191Z,23.48
2022-09-06T05:56:17.803Z,23.50
2022-09-06T05:57:19.315Z,23.52
2022-09-06T05:58:20.816Z,23.54
2022-09-06T05:59:22.343Z,23.54
2022-09-06T06:00:23.852Z,23.56
2022-09-06T06:01:28.104Z,23.58
2022-09-06T06:02:29.676Z,23.59
2022-09-06T06:03:31.166Z,23.61
2022-09-06T06:04:32.764Z,23.64
2022-09-06T06:05:34.271Z,23.49
2022-09-06T06:06:35.759Z,23.67
2022-09-06T06:07:37.322Z,23.68
2022-09-06T06:08:39.764Z,23.70
2022-09-06T06:09:41.486Z,23.72
2022-09-06T06:10:43.056Z,23.72
2022-09-06T06:11:44.653Z,23.69
2022-09-06T06:12:46.176Z,23.75
2022-09-06T06:13:47.670Z,23.77
2022-09-06T06:14:49.175Z,23.80
2022-09-06T06:15:50.723Z,23.81
2022-09-06T06:16:52.708Z,23.83
2022-09-06T06:17:54.348Z,23.85
2022-09-06T06:18:56.028Z,23.87
2022-09-06T06:19:58.318Z,23.88
2022-09-06T06:21:18.714Z,23.91
2022-09-06T06:22:20.279Z,23.93
2022-09-06T06:23:22.267Z,23.94
2022-09-06T06:24:23.935Z,23.96
2022-09-06T06:25:26.272Z,23.99
2022-09-06T06:26:28.443Z,24.01
2022-09-06T06:27:30.038Z,24.01
2022-09-06T06:28:32.195Z,24.03
2022-09-06T06:29:33.874Z,24.04
2022-09-06T06:30:35.999Z,24.06
2022-09-06T06:31:37.860Z,24.06
2022-09-06T06:32:40.432Z,24.08
2022-09-06T06:33:42.613Z,24.11
2022-09-06T06:34:44.176Z,24.14
2022-09-06T06:36:05.084Z,24.16
2022-09-06T06:37:06.566Z,24.19
2022-09-06T06:38:08.065Z,24.22
2022-09-06T06:39:09.681Z,24.25
2022-09-06T06:40:11.616Z,24.27
2022-09-06T06:41:13.822Z,24.31
2022-09-06T06:42:16.054Z,24.34
2022-09-06T06:43:26.378Z,24.39
2022-09-06T06:44:28.377Z,24.42
2022-09-06T06:45:29.982Z,24.45
2022-09-06T06:46:32.555Z,24.48
2022-09-06T06:47:34.072Z,24.50
2022-09-06T06:48:35.978Z,24.54
2022-09-06T06:49:37.465Z,24.55
2022-09-06T06:50:38.992Z,24.57
2022-09-06T06:51:41.383Z,24.61
2022-09-06T06:52:42.890Z,24.64
2022-09-06T06:53:44.967Z,24.67
2022-09-06T06:54:46.728Z,24.69
2022-09-06T06:55:48.525Z,24.73
2022-09-06T06:56:50.077Z,24.75
2022-09-06T06:57:51.679Z,24.78
2022-09-06T06:58:54.592Z,24.80
2022-09-06T06:59:56.128Z,24.82
2022-09-06T07:00:57.735Z,24.84
2022-09-06T07:01:59.517Z,24.84
2022-09-06T07:03:01.287Z,24.85
2022-09-06T07:04:03.294Z,24.84
2022-09-06T07:07:49.502Z,24.84
2022-09-06T07:08:51.051Z,24.84
2022-09-06T07:11:14.731Z,24.86
2022-09-06T07:12:16.232Z,24.88
2022-09-06T07:13:17.717Z,24.88
2022-09-06T07:14:19.249Z,24.90
2022-09-06T07:15:20.738Z,24.91
2022-09-06T07:16:23.024Z,24.93
2022-09-06T07:17:24.539Z,24.93
2022-09-06T07:18:26.014Z,24.93
2022-09-06T07:22:13.624Z,24.86
2022-09-06T07:24:36.859Z,24.78
2022-09-06T07:25:38.403Z,24.89
2022-09-06T07:26:40.420Z,24.92
2022-09-06T07:27:47.508Z,24.93
2022-09-06T07:28:56.675Z,24.94
2022-09-06T07:29:58.191Z,24.90
2022-09-06T07:31:00.621Z,24.89
2022-09-06T07:33:10.758Z,24.86
2022-09-06T07:34:13.127Z,24.83
2022-09-06T07:35:14.711Z,24.85
2022-09-06T07:36:16.277Z,24.90
2022-09-06T07:37:17.827Z,24.92
2022-09-06T07:38:19.312Z,24.97
2022-09-06T07:39:20.811Z,25.00
2022-09-06T07:40:22.798Z,25.02
2022-09-06T07:41:24.329Z,25.01
2022-09-06T07:42:25.830Z,24.91
2022-09-06T07:43:27.718Z,24.92
2022-09-06T07:44:29.585Z,24.92
2022-09-06T07:45:31.077Z,24.94
2022-09-06T07:46:32.679Z,24.96
2022-09-06T07:48:55.731Z,24.97
2022-09-06T07:51:19.619Z,25.05
2022-09-06T07:53:43.078Z,25.10
2022-09-06T07:54:45.639Z,25.17
2022-09-06T07:55:47.202Z,25.16
2022-09-06T07:56:48.728Z,25.10
2022-09-06T07:57:50.216Z,25.05
2022-09-06T07:58:51.935Z,24.99
2022-09-06T07:59:53.470Z,24.99
2022-09-06T08:00:55.021Z,25.05
2022-09-06T08:01:56.654Z,25.09
2022-09-06T08:02:58.192Z,25.07
2022-09-06T08:04:02.942Z,25.09
2022-09-06T08:06:26.527Z,25.13
2022-09-06T08:07:43.318Z,25.17
2022-09-06T08:09:00.918Z,25.19
2022-09-06T08:10:03.184Z,25.17
2022-09-06T08:11:07.470Z,25.20
2022-09-06T08:12:09.196Z,25.20
2022-09-06T08:13:10.661Z,25.22
2022-09-06T08:14:12.162Z,25.25
2022-09-06T08:15:13.670Z,25.31
2022-09-06T08:16:16.844Z,25.34
2022-09-06T08:17:18.510Z,25.37
2022-09-06T08:18:20.052Z,25.40
2022-09-06T08:19:21.559Z,25.44
2022-09-06T08:20:23.106Z,25.46
2022-09-06T08:21:25.352Z,25.51
2022-09-06T08:22:26.871Z,25.58
2022-09-06T08:23:29.180Z,25.63
2022-09-06T08:24:31.193Z,25.63
2022-09-06T08:25:32.722Z,25.66
2022-09-06T08:26:34.692Z,25.74
2022-09-06T08:27:36.278Z,25.79
2022-09-06T08:28:37.773Z,25.79
2022-09-06T08:29:39.912Z,25.77
2022-09-06T08:30:41.622Z,25.84
2022-09-06T08:31:43.665Z,25.89
2022-09-06T08:32:45.230Z,25.94
2022-09-06T08:33:47.741Z,25.85
2022-09-06T08:34:49.671Z,25.83
2022-09-06T08:36:00.346Z,25.88
2022-09-06T08:37:01.864Z,25.93
2022-09-06T08:38:05.331Z,26.01
2022-09-06T08:39:07.246Z,26.12
2022-09-06T08:40:09.016Z,26.16
2022-09-06T08:41:11.833Z,26.18
2022-09-06T08:42:13.437Z,26.23
2022-09-06T08:43:16.931Z,26.31
2022-09-06T08:45:55.645Z,26.41
2022-09-06T08:47:04.627Z,26.45
2022-09-06T08:48:06.322Z,26.48
2022-09-06T08:49:08.027Z,26.46
2022-09-06T08:50:09.637Z,26.50
2022-09-06T08:51:11.110Z,26.51
2022-09-06T08:52:23.521Z,26.56
2022-09-06T08:53:25.027Z,26.57
2022-09-06T08:54:29.553Z,26.64
2022-09-06T08:55:35.551Z,26.69
2022-09-06T08:56:42.707Z,26.75
2022-09-06T08:57:44.199Z,26.79
2022-09-06T08:59:06.621Z,26.83
2022-09-06T09:00:11.045Z,26.88
2022-09-06T09:01:14.493Z,26.92
2022-09-06T09:02:17.252Z,26.99
2022-09-06T09:03:20.123Z,27.08
2022-09-06T09:04:22.210Z,27.16
2022-09-06T09:05:23.668Z,27.23
2022-09-06T09:06:25.366Z,27.23
2022-09-06T09:07:32.876Z,27.26
2022-09-06T09:08:37.437Z,27.27
2022-09-06T09:09:38.971Z,27.46
2022-09-06T09:10:41.917Z,27.52
2022-09-06T09:11:43.837Z,27.49
2022-09-06T09:12:48.313Z,27.53
2022-09-06T09:13:59.181Z,27.58
2022-09-06T09:15:05.941Z,27.64
2022-09-06T09:16:07.510Z,27.68
2022-09-06T09:17:12.867Z,27.72
2022-09-06T09:18:15.291Z,27.80
2022-09-06T09:19:18.017Z,27.93
2022-09-06T09:20:20.159Z,28.01
2022-09-06T09:21:23.917Z,28.11
2022-09-06T09:22:28.442Z,28.19
2022-09-06T09:23:30.988Z,28.25
2022-09-06T09:24:32.498Z,28.31
2022-09-06T09:25:34.110Z,28.36
2022-09-06T09:26:48.187Z,28.41
2022-09-06T09:27:57.262Z,28.53
2022-09-06T09:29:01.860Z,28.63
2022-09-06T09:31:33.892Z,28.70
2022-09-06T09:32:35.479Z,28.85
2022-09-06T09:33:38.971Z,28.92
2022-09-06T09:34:40.503Z,29.08
2022-09-06T09:35:42.217Z,29.20
2022-09-06T09:38:11.695Z,29.41
2022-09-06T09:39:13.630Z,29.46
2022-09-06T09:40:15.224Z,29.53
2022-09-06T09:41:29.058Z,29.72
2022-09-06T09:42:37.084Z,29.91
2022-09-06T09:43:39.798Z,30.02
2022-09-06T09:44:44.319Z,30.01
2022-09-06T09:45:45.875Z,30.00
2022-09-06T09:46:47.467Z,30.06
2022-09-06T09:47:48.956Z,30.16
2022-09-06T09:49:05.799Z,30.16
2022-09-06T09:50:21.203Z,30.27
2022-09-06T09:51:27.059Z,30.40
2022-09-06T09:52:29.875Z,30.55
2022-09-06T09:53:31.338Z,30.71
2022-09-06T09:54:35.058Z,30.83
2022-09-06T09:55:36.567Z,30.91
2022-09-06T09:56:38.008Z,31.07
2022-09-06T09:57:46.132Z,31.27
2022-09-06T09:58:47.593Z,31.43
2022-09-06T09:59:52.926Z,31.58
2022-09-06T10:01:16.599Z,31.63
2022-09-06T10:02:18.130Z,31.73
2022-09-06T10:03:20.133Z,31.82
2022-09-06T10:04:44.180Z,32.01
2022-09-06T10:06:02.068Z,32.12
2022-09-06T10:07:22.959Z,32.17
2022-09-06T10:08:25.046Z,32.20
2022-09-06T10:09:33.718Z,32.32
2022-09-06T10:10:38.380Z,32.49
2022-09-06T10:11:41.215Z,32.63
2022-09-06T10:12:42.727Z,32.85
2022-09-06T10:13:44.302Z,33.02
2022-09-06T10:14:46.837Z,33.17
2022-09-06T10:15:48.927Z,33.35
2022-09-06T10:16:51.706Z,33.48
2022-09-06T10:17:53.245Z,33.53
2022-09-06T10:18:54.715Z,33.55
2022-09-06T10:19:56.197Z,33.47
2022-09-06T10:20:59.454Z,33.56
2022-09-06T10:22:02.887Z,33.72
2022-09-06T10:23:04.814Z,33.88
2022-09-06T10:25:41.076Z,34.18
2022-09-06T10:26:43.610Z,34.23
2022-09-06T10:28:10.344Z,34.08
2022-09-06T10:29:14.232Z,34.14
2022-09-06T10:30:15.746Z,34.26
2022-09-06T10:31:36.593Z,34.39
2022-09-06T10:32:42.595Z,34.54
2022-09-06T10:34:02.982Z,34.69
2022-09-06T10:35:13.543Z,34.71
2022-09-06T10:36:15.982Z,34.80
2022-09-06T10:37:29.143Z,34.91
2022-09-06T10:38:36.350Z,34.89
2022-09-06T10:39:43.940Z,34.75
2022-09-06T10:41:01.437Z,34.71
2022-09-06T10:42:09.102Z,34.83
2022-09-06T10:43:13.458Z,34.92
2022-09-06T10:44:33.788Z,35.02
2022-09-06T10:45:35.252Z,35.19
2022-09-06T10:46:37.198Z,35.34
2022-09-06T10:47:57.177Z,35.47
2022-09-06T10:48:58.736Z,35.62
2022-09-06T10:50:00.233Z,35.73
2022-09-06T10:51:05.311Z,35.82
2022-09-06T10:52:07.642Z,35.88
2022-09-06T10:53:11.806Z,35.88
2022-09-06T10:54:16.171Z,35.93
2022-09-06T10:55:17.760Z,36.02
2022-09-06T10:56:27.277Z,36.12
2022-09-06T11:00:21.749Z,36.44
2022-09-06T11:01:25.686Z,36.30
2022-09-06T11:04:23.658Z,36.22
2022-09-06T11:05:39.426Z,36.22
2022-09-06T11:06:43.942Z,36.29
2022-09-06T11:09:19.006Z,36.04
2022-09-06T11:10:22.025Z,36.08
2022-09-06T11:11:24.411Z,36.11
2022-09-06T11:12:46.345Z,36.13
2022-09-06T11:13:47.837Z,36.15
2022-09-06T11:14:49.307Z,35.79
2022-09-06T11:16:03.429Z,35.65
2022-09-06T11:17:06.954Z,35.68
2022-09-06T11:18:18.953Z,35.67
2022-09-06T11:19:25.009Z,35.71
2022-09-06T11:20:33.775Z,35.59
2022-09-06T11:21:37.315Z,35.57
2022-09-06T11:22:57.702Z,35.57
2022-09-06T11:24:11.666Z,35.44
2022-09-06T11:25:31.962Z,35.37
2022-09-06T11:26:34.641Z,35.24
2022-09-06T11:27:36.942Z,35.21
2022-09-06T11:28:40.232Z,35.18
2022-09-06T11:29:42.610Z,35.08
2022-09-06T11:30:45.011Z,34.98
2022-09-06T11:33:24.286Z,34.94
2022-09-06T11:34:27.278Z,34.78
2022-09-06T11:35:30.226Z,34.75
2022-09-06T11:36:35.867Z,34.74
2022-09-06T11:37:39.573Z,34.76
2022-09-06T11:38:41.124Z,34.74
2022-09-06T11:41:05.586Z,34.77
2022-09-06T11:42:27.812Z,34.78
2022-09-06T11:43:45.816Z,34.80
2022-09-06T11:44:50.312Z,34.85
2022-09-06T11:45:52.278Z,34.80
2022-09-06T11:46:56.659Z,34.78
2022-09-06T11:47:58.176Z,34.77
2022-09-06T11:49:00.172Z,34.77
2022-09-06T11:50:20.164Z,34.78
2022-09-06T11:51:54.114Z,34.79
2022-09-06T11:53:03.003Z,34.76
2022-09-06T11:54:16.344Z,34.75
2022-09-06T11:55:21.036Z,34.78
2022-09-06T11:56:40.913Z,34.73
2022-09-06T11:57:42.436Z,34.70
2022-09-06T11:59:12.805Z,34.66
2022-09-06T12:00:18.420Z,34.64
2022-09-06T12:01:20.762Z,34.61
2022-09-06T12:02:29.812Z,34.58
2022-09-06T12:04:06.531Z,34.51
2022-09-06T12:05:10.050Z,34.47
2022-09-06T12:06:17.730Z,34.48
2022-09-06T12:07:19.203Z,34.48
2022-09-06T12:08:25.070Z,34.40
2022-09-06T12:09:46.896Z,34.33
2022-09-06T12:11:04.783Z,34.39
2022-09-06T12:12:06.387Z,34.38
2022-09-06T12:13:26.262Z,34.22
2022-09-06T12:14:35.869Z,34.24
2022-09-06T12:15:46.580Z,34.26
2022-09-06T12:16:57.186Z,34.30
2022-09-06T12:17:59.074Z,34.32
2022-09-06T12:19:00.788Z,34.32
2022-09-06T12:20:08.733Z,34.28
2022-09-06T12:21:10.547Z,34.26
2022-09-06T12:22:30.071Z,34.29
2022-09-06T12:23:34.562Z,34.34
2022-09-06T12:24:36.059Z,34.15
2022-09-06T12:25:37.526Z,34.13
2022-09-06T12:26:55.741Z,34.07
2022-09-06T12:27:57.949Z,34.02
2022-09-06T12:29:00.036Z,33.99
2022-09-06T12:30:08.946Z,34.01
2022-09-06T12:31:23.540Z,34.04
2022-09-06T12:32:26.419Z,34.02
2022-09-06T12:33:36.302Z,34.04
2022-09-06T12:34:37.806Z,34.06
2022-09-06T12:37:01.339Z,34.04
2022-09-06T12:38:03.806Z,34.04
2022-09-06T12:39:08.946Z,34.07
2022-09-06T12:40:14.861Z,34.10
2022-09-06T12:41:16.360Z,34.11
2022-09-06T12:42:19.398Z,34.12
2022-09-06T12:43:20.887Z,34.05
2022-09-06T12:44:25.895Z,34.02
2022-09-06T12:45:27.813Z,33.96
2022-09-06T12:46:29.612Z,33.87
2022-09-06T12:47:31.490Z,33.78
2022-09-06T12:48:35.225Z,33.79
2022-09-06T12:49:36.718Z,33.82
2022-09-06T12:50:38.249Z,33.83
2022-09-06T12:51:40.303Z,33.85
2022-09-06T12:52:51.955Z,33.91
2022-09-06T12:53:53.911Z,33.91
2022-09-06T12:54:55.701Z,33.90
2022-09-06T12:56:12.228Z,33.87
2022-09-06T12:57:23.518Z,33.84
2022-09-06T12:58:27.901Z,33.85
2022-09-06T12:59:29.751Z,33.88
2022-09-06T13:00:32.706Z,33.85
2022-09-06T13:01:34.287Z,33.82
2022-09-06T13:02:41.187Z,33.83
2022-09-06T13:03:44.152Z,33.79
2022-09-06T13:04:56.390Z,33.72
2022-09-06T13:05:58.340Z,33.75
2022-09-06T13:07:00.144Z,33.78
2022-09-06T13:08:02.283Z,33.78
2022-09-06T13:09:03.781Z,33.72
2022-09-06T13:10:05.438Z,33.75
2022-09-06T13:11:09.013Z,33.78
2022-09-06T13:12:17.697Z,33.74
2022-09-06T13:13:19.684Z,33.72
2022-09-06T13:14:23.536Z,33.78
2022-09-06T13:15:31.332Z,33.82
2022-09-06T13:16:36.878Z,33.90
2022-09-06T13:17:38.919Z,33.97
2022-09-06T13:18:40.410Z,33.93
2022-09-06T13:19:48.610Z,33.93
2022-09-06T13:21:02.495Z,33.84
2022-09-06T13:22:05.475Z,33.86
2022-09-06T13:23:08.236Z,33.91
2022-09-06T13:24:25.784Z,33.93
2022-09-06T13:25:27.332Z,33.88
2022-09-06T13:26:32.288Z,33.83
2022-09-06T13:27:35.486Z,33.85
2022-09-06T13:28:37.066Z,33.88
2022-09-06T13:29:38.567Z,33.91
2022-09-06T13:30:49.525Z,33.94
2022-09-06T13:31:52.332Z,33.99
2022-09-06T13:32:53.794Z,34.02
2022-09-06T13:33:56.915Z,34.06
2022-09-06T13:34:58.829Z,34.10
2022-09-06T13:36:12.121Z,34.12
2022-09-06T13:37:13.663Z,34.12
2022-09-06T13:38:21.966Z,34.10
2022-09-06T13:39:49.915Z,34.11
2022-09-06T13:41:10.982Z,34.12
2022-09-06T13:42:27.449Z,34.13
2022-09-06T13:43:29.086Z,34.15
2022-09-06T13:44:31.256Z,34.14
2022-09-06T13:45:33.756Z,34.11
2022-09-06T13:46:36.391Z,34.09
2022-09-06T13:47:37.963Z,34.06
2022-09-06T13:48:39.875Z,34.00
2022-09-06T13:49:41.705Z,34.00
2022-09-06T13:50:43.256Z,34.01
2022-09-06T13:51:44.718Z,34.00
2022-09-06T13:52:46.205Z,33.99
2022-09-06T13:53:47.740Z,33.99
2022-09-06T13:54:49.240Z,33.97
2022-09-06T13:55:52.266Z,33.95
2022-09-06T13:56:53.835Z,33.94
2022-09-06T13:57:55.332Z,33.94
2022-09-06T13:58:56.831Z,33.97
2022-09-06T13:59:58.422Z,33.98
2022-09-06T14:01:00.110Z,34.03
2022-09-06T14:02:02.986Z,34.09
2022-09-06T14:03:04.983Z,34.12
2022-09-06T14:04:06.819Z,34.11
2022-09-06T14:05:08.550Z,34.12
2022-09-06T14:06:10.072Z,34.10
2022-09-06T14:07:11.948Z,34.06
2022-09-06T14:08:13.460Z,34.02
2022-09-06T14:09:15.012Z,34.00
2022-09-06T14:10:16.598Z,34.02
2022-09-06T14:11:18.386Z,34.01
2022-09-06T14:12:33.440Z,34.01
2022-09-06T14:13:34.984Z,34.01
2022-09-06T14:14:36.642Z,34.04
2022-09-06T14:15:38.230Z,34.07